• Join FlightAware (Why Join?)
  • Login
  • US Flag 
05:24AM EDT


 

Airport Tracker/Info


-or-


 

Live Flight TrackerFlight Track Log ✈ SWA1802 ✈ 23-Jun-2013 ✈ KMDW - KLAX

Flight Track Log - Related Links

Times and Time Zones

All times are in EDT time to prevent confusion due to time zone crossing. See the SWA1802 flight status page for this flight to view local times or setup timezone preferences in your user account.

Time Position Orientation Groundspeed Altitude Reporting Facility
EDT Latitude Longitude Course Direction KTS MPH feet Rate Location/Type
06:38PM 41.7730 -87.7690 240° Southwest 151 174 1,700  Level FlightAware
06:39PM 41.7660 -87.7950 250° West 172 198 2,500 1,200 Climbing FlightAware
06:39PM 41.7560 -87.8290 248° West 201 231 2,900 1,020 Climbing FlightAware
06:40PM 41.7470 -87.8610 249° West 212 244 3,500 1,620 Climbing FlightAware
06:40PM 41.7450 -87.8740 258° West 221 254 3,900 2,640 Climbing FlightAware
06:40PM 41.7360 -87.9170 254° West 227 261 5,400 2,820 Climbing FlightAware
06:41PM 41.7240 -87.9540 247° West 230 265 6,800 3,000 Climbing FlightAware
06:41PM 41.7190 -87.9700 247° West 230 265 7,400 2,880 Climbing FlightAware
06:41PM 41.7100 -88.0080 252° West 240 276 8,700 2,520 Climbing FlightAware
06:42PM 41.7110 -88.0260 274° West 249 287 9,100 2,100 Climbing FlightAware
06:42PM 41.7230 -88.0480 306° West 264 304 9,800 2,340 Climbing FlightAware
06:43PM 41.7630 -88.0940 319° Northwest 279 321 11,400 2,280 Climbing FlightAware
06:43PM 41.8100 -88.1430 322° Northwest 301 346 13,000 2,460 Climbing FlightAware
06:44PM 41.8610 -88.1740 336° Northwest 311 358 14,900 2,520 Climbing FlightAware
06:45PM 41.9220 -88.2120 335° Northwest 325 374 16,600 2,280 Climbing FlightAware
06:45PM 41.9750 -88.2530 330° Northwest 331 381 18,200 1,980 Climbing FlightAware
06:46PM 42.0300 -88.2960 330° Northwest 346 398 19,300 1,920 Climbing FlightAware
06:47PM 42.0850 -88.3400 329° Northwest 348 400 20,800 2,280 Climbing FlightAware
06:48PM 42.1450 -88.3960 325° Northwest 343 395 22,600 1,440 Climbing FlightAware
06:48PM 42.1920 -88.4670 312° West 353 406 23,000 540 Climbing FlightAware
06:49PM 42.2350 -88.5370 310° West 376 433 23,400 540 Climbing FlightAware
06:49PM 42.2420 -88.5650 289° West 380 437 23,500 1,020 Climbing FlightAware
06:49PM 42.2430 -88.6030 272° West 385 443 23,900 1,560 Climbing FlightAware
06:50PM 42.2410 -88.6990 268° West 391 450 25,000 1,440 Climbing FlightAware
06:51PM 42.2400 -88.8030 269° West 403 464 25,900 1,500 Climbing FlightAware
06:51PM 42.2400 -88.8960 270° West 398 458 27,000 1,080 Climbing FlightAware
06:52PM 42.2400 -89.0100 270° West 423 487 27,400 360 Climbing FlightAware
06:53PM 42.2400 -89.1390 270° West 448 516 27,600 600 Climbing FlightAware
06:54PM 42.2400 -89.2470 270° West 454 522 28,300 1,200 Climbing FlightAware
06:54PM 42.2390 -89.3670 269° West 455 524 29,300 1,320 Climbing FlightAware
06:55PM 42.2400 -89.4940 271° West 452 520 30,300 1,140 Climbing FlightAware
06:56PM 42.2410 -89.6080 271° West 452 520 31,000 1,080 Climbing FlightAware
06:56PM 42.2420 -89.7180 271° West 451 519 31,800 1,200 Climbing FlightAware
06:57PM 42.2420 -89.8440 270° West 449 517 32,700 1,080 Climbing FlightAware
06:58PM 42.2380 -89.9560 267° West 446 513 33,400 1,020 Climbing FlightAware
06:59PM 42.2070 -90.0700 250° West 440 506 34,200 960 Climbing FlightAware
06:59PM 42.1780 -90.1690 248° West 441 507 34,800 1,020 Climbing FlightAware
07:00PM 42.1450 -90.2810 248° West 438 504 35,600 840 Climbing FlightAware
07:01PM 42.1160 -90.3830 249° West 437 503 36,000 240 Climbing FlightAware
07:01PM 42.0830 -90.4940 248° West 438 504 36,000  Level FlightAware
07:02PM 42.0550 -90.5900 249° West 438 504 36,000  Level FlightAware
07:03PM 42.0210 -90.7030 248° West 435 501 36,000  Level FlightAware
07:03PM 41.9910 -90.8030 248° West 425 489 36,000  Level FlightAware
07:04PM 41.9590 -90.9080 248° West 422 486 36,000  Level FlightAware
07:05PM 41.9300 -91.0070 249° West 423 487 36,000  Level FlightAware
07:06PM 41.8970 -91.1160 248° West 428 493 36,000  Level FlightAware
07:06PM 41.8680 -91.2110 248° West 430 495 36,000  Level FlightAware
07:07PM 41.8360 -91.3160 248° West 430 495 36,000  Level FlightAware
07:08PM 41.8050 -91.4180 248° West 430 495 36,000  Level FlightAware
07:08PM 41.7700 -91.5300 247° West 429 494 36,000  Level FlightAware
07:09PM 41.7390 -91.6320 248° West 428 493 36,000  Level FlightAware
07:10PM 41.7090 -91.7270 247° West 426 490 36,000  Level FlightAware
07:10PM 41.6750 -91.8390 248° West 424 488 36,000  Level FlightAware
07:11PM 41.6450 -91.9330 247° West 422 486 36,000  Level FlightAware
07:12PM 41.6160 -92.0270 248° West 421 484 36,000  Level FlightAware
07:13PM 41.5810 -92.1360 247° West 420 483 36,000  Level FlightAware
07:13PM 41.5500 -92.2360 248° West 421 484 36,000  Level FlightAware
07:14PM 41.5230 -92.3220 247° West 421 484 36,000  Level FlightAware
07:15PM 41.4800 -92.4560 247° West 421 484 36,000  Level FlightAware
07:16PM 41.4420 -92.5770 247° West 424 488 36,000  Level FlightAware
07:16PM 41.4130 -92.6650 246° West 427 491 36,000  Level FlightAware
07:17PM 41.3800 -92.7680 247° West 428 493 36,000  Level FlightAware
07:18PM 41.3490 -92.8650 247° West 430 495 36,000  Level FlightAware
07:18PM 41.3150 -92.9700 247° West 430 495 36,000  Level FlightAware
07:19PM 41.2830 -93.0690 247° West 432 497 36,000  Level FlightAware
07:20PM 41.2330 -93.2210 246° West 433 498 36,000  Level FlightAware
07:21PM 41.2010 -93.3180 246° West 431 496 36,000  Level FlightAware
07:21PM 41.1670 -93.4220 247° West 431 496 36,000  Level FlightAware
07:22PM 41.1330 -93.5230 246° West 431 496 36,000  Level FlightAware
07:23PM 41.1000 -93.6240 247° West 425 489 36,000 -420 Level FlightAware
07:24PM 41.0600 -93.7430 246° West 423 487 35,400 -900 Descending FlightAware
07:24PM 41.0240 -93.8520 246° West 423 487 34,600 -1,020 Descending FlightAware
07:25PM 40.9930 -93.9430 246° West 422 486 34,000 -480 Descending FlightAware
07:26PM 40.9620 -94.0350 246° West 421 484 34,000  Level FlightAware
07:27PM 40.9230 -94.1510 246° West 419 482 34,000  Level FlightAware
07:27PM 40.8920 -94.2430 246° West 418 481 34,000  Level FlightAware
07:28PM 40.8550 -94.3510 246° West 417 480 34,000  Level FlightAware
07:29PM 40.8120 -94.4750 245° Southwest 415 478 34,000  Level FlightAware
07:30PM 40.7810 -94.5660 246° West 415 478 34,000  Level FlightAware
07:30PM 40.7450 -94.6720 246° West 414 476 34,000  Level FlightAware
07:31PM 40.7130 -94.7640 245° Southwest 413 475 34,000  Level FlightAware
07:32PM 40.6830 -94.8550 247° West 414 476 34,000  Level FlightAware
07:32PM 40.6600 -94.9690 255° West 415 478 34,000  Level FlightAware
07:33PM 40.6400 -95.0650 255° West 415 478 34,000  Level FlightAware
07:34PM 40.6210 -95.1620 256° West 415 478 34,000  Level FlightAware
07:35PM 40.6130 -95.3110 266° West 426 490 34,000  Level FlightAware
07:35PM 40.6190 -95.4280 274° West 427 491 34,000  Level FlightAware
07:36PM 40.6240 -95.5260 274° West 427 491 34,000  Level FlightAware
07:37PM 40.6300 -95.6380 274° West 429 494 34,000  Level FlightAware
07:37PM 40.6350 -95.7450 274° West 429 494 34,000  Level FlightAware
07:38PM 40.6400 -95.8510 274° West 431 496 34,000  Level FlightAware
07:39PM 40.6460 -95.9680 274° West 433 498 34,000  Level FlightAware
07:40PM 40.6540 -96.0780 276° West 433 498 34,000  Level FlightAware
07:40PM 40.6630 -96.1840 276° West 429 494 34,000  Level FlightAware
07:41PM 40.6720 -96.2970 276° West 427 491 34,000  Level FlightAware
07:42PM 40.6820 -96.4070 277° West 427 491 34,000  Level FlightAware
07:42PM 40.6910 -96.5140 276° West 427 491 34,000  Level FlightAware
07:43PM 40.7000 -96.6170 277° West 427 491 34,000  Level FlightAware
07:44PM 40.7100 -96.7270 277° West 427 491 34,000  Level FlightAware
07:44PM 40.7180 -96.8340 276° West 424 488 34,000  Level FlightAware
07:45PM 40.7030 -96.9350 259° West 420 483 34,000 360 Level FlightAware
07:46PM 40.6720 -97.0470 250° West 427 491 34,600 900 Climbing FlightAware
07:47PM 40.6480 -97.1320 250° West 426 490 35,300 960 Climbing FlightAware
07:47PM 40.6130 -97.2560 250° West 424 488 36,000 420 Climbing FlightAware
07:48PM 40.5870 -97.3510 250° West 425 489 36,000  Level FlightAware
07:49PM 40.5590 -97.4490 249° West 422 486 36,000  Level FlightAware
07:49PM 40.5300 -97.5500 249° West 422 486 36,000  Level FlightAware
07:50PM 40.5020 -97.6450 249° West 422 486 36,000  Level FlightAware
07:51PM 40.4700 -97.7580 250° West 422 486 36,000  Level FlightAware
07:51PM 40.4450 -97.8470 250° West 423 487 36,000  Level FlightAware
07:52PM 40.4040 -97.9870 249° West 423 487 36,000  Level FlightAware
07:53PM 40.3750 -98.0870 249° West 424 488 36,000  Level FlightAware
07:54PM 40.3480 -98.1800 249° West 426 490 36,000  Level FlightAware
07:54PM 40.3240 -98.2600 249° West 426 490 36,000  Level FlightAware
07:55PM 40.2950 -98.3600 249° West 426 490 36,000  Level FlightAware
07:56PM 40.2730 -98.4340 249° West 426 490 36,000  Level FlightAware
07:57PM 40.2440 -98.5330 249° West 426 490 36,000  Level FlightAware
07:57PM 40.2210 -98.6130 249° West 426 490 36,000  Level FlightAware
07:58PM 40.1980 -98.6920 249° West 426 490 36,000  Level FlightAware
07:59PM 40.1680 -98.7950 249° West 426 490 36,000  Level FlightAware
07:59PM 40.1450 -98.8700 248° West 426 490 36,000  Level FlightAware
08:00PM 40.1180 -98.9650 250° West 426 490 36,000  Level FlightAware
08:01PM 40.0960 -99.0380 249° West 426 490 36,000  Level FlightAware
08:02PM 40.0670 -99.1360 249° West 426 490 36,000  Level FlightAware
08:02PM 40.0450 -99.2120 249° West 426 490 36,000  Level FlightAware
08:03PM 40.0070 -99.3410 249° West 426 490 36,000  Level FlightAware
08:04PM 39.9214 -99.5986 249° West 416 479 36,000  Level Denver Center
08:05PM 39.8775 -99.7383 248° West 415 478 36,000  Level Denver Center
08:06PM 39.8333 -99.8789 248° West 419 482 36,000  Level Denver Center
08:07PM 39.7894 -100.0197 248° West 420 483 36,000  Level Denver Center
08:08PM 39.7403 -100.1797 248° West 420 483 36,000  Level Denver Center
08:09PM 39.6964 -100.3144 247° West 423 487 36,000  Level Denver Center
08:10PM 39.6467 -100.4711 248° West 421 484 36,000  Level Denver Center
08:11PM 39.6039 -100.6061 248° West 423 487 36,000  Level Denver Center
08:12PM 39.5606 -100.7400 247° West 422 486 36,000  Level Denver Center
08:13PM 39.5111 -100.8969 248° West 421 484 36,000  Level Denver Center
08:14PM 39.4675 -101.0314 247° West 422 486 36,000  Level Denver Center
08:15PM 39.4300 -101.1431 247° West 424 488 36,000  Level Denver Center
08:16PM 39.3711 -101.3219 247° West 424 488 36,000  Level Denver Center
08:22PM 39.1220 -102.0730 247° West 417 480 36,000  Level FlightAware
08:22PM 39.0950 -102.1520 246° West 417 480 36,000  Level FlightAware
08:23PM 39.0460 -102.2970 247° West 416 479 36,000  Level FlightAware
08:24PM 39.0150 -102.3880 246° West 415 478 36,000  Level FlightAware
08:25PM 38.9840 -102.4780 246° West 415 478 36,000  Level FlightAware
08:25PM 38.9480 -102.5830 246° West 414 476 36,000  Level FlightAware
08:26PM 38.9140 -102.6830 246° West 412 474 36,000  Level FlightAware
08:27PM 38.8810 -102.7790 246° West 409 471 36,000  Level FlightAware
08:27PM 38.8480 -102.8760 246° West 411 473 36,000  Level FlightAware
08:28PM 38.8150 -102.9690 246° West 410 472 36,000  Level FlightAware
08:29PM 38.7830 -103.0610 246° West 410 472 36,000  Level FlightAware
08:30PM 38.7520 -103.1490 246° West 410 472 36,000  Level FlightAware
08:30PM 38.7180 -103.2470 246° West 410 472 36,000  Level FlightAware
08:31PM 38.6860 -103.3370 246° West 413 475 36,000  Level FlightAware
08:32PM 38.6530 -103.4300 246° West 417 480 36,000  Level FlightAware
08:32PM 38.6220 -103.5200 246° West 418 481 36,000  Level FlightAware
08:33PM 38.5850 -103.6230 245° Southwest 418 481 36,000  Level FlightAware
08:34PM 38.5530 -103.7120 245° Southwest 419 482 36,000  Level FlightAware
08:34PM 38.5190 -103.8080 246° West 418 481 36,000  Level FlightAware
08:35PM 38.4840 -103.9060 246° West 418 481 36,000  Level FlightAware
08:36PM 38.4570 -103.9820 246° West 418 481 36,000  Level FlightAware
08:37PM 38.4150 -104.0960 245° Southwest 420 483 36,000  Level FlightAware
08:38PM 38.3650 -104.2350 245° Southwest 421 484 36,000  Level FlightAware
08:38PM 38.3340 -104.3200 245° Southwest 421 484 36,000  Level FlightAware
08:39PM 38.2880 -104.4450 245° Southwest 419 482 36,000  Level FlightAware
08:40PM 38.2540 -104.5320 244° Southwest 417 480 36,000  Level FlightAware
08:41PM 38.2180 -104.6200 243° Southwest 417 480 36,000  Level FlightAware
08:41PM 38.1790 -104.7170 243° Southwest 418 481 36,000  Level FlightAware
08:42PM 38.1420 -104.8100 243° Southwest 418 481 36,000  Level FlightAware
08:43PM 38.1060 -104.8980 243° Southwest 416 479 36,000  Level FlightAware
08:43PM 38.0820 -104.9840 251° West 415 478 36,000  Level FlightAware
08:44PM 38.0590 -105.0800 253° West 415 478 36,000  Level FlightAware
08:45PM 38.0330 -105.1840 252° West 409 471 36,000  Level FlightAware
08:45PM 38.0090 -105.2850 253° West 403 464 36,000  Level FlightAware
08:46PM 37.9850 -105.3820 253° West 401 461 36,000  Level FlightAware
08:47PM 37.9640 -105.4670 253° West 401 461 36,000  Level FlightAware
08:48PM 37.9440 -105.5450 252° West 401 461 36,000  Level FlightAware
08:48PM 37.9150 -105.6650 253° West 401 461 36,000  Level FlightAware
08:49PM 37.8920 -105.7540 252° West 402 463 36,000  Level FlightAware
08:50PM 37.8710 -105.8390 253° West 405 466 36,000  Level FlightAware
08:50PM 37.8450 -105.9400 252° West 408 470 36,000  Level FlightAware
08:51PM 37.8250 -106.0200 252° West 408 470 36,000  Level FlightAware
08:52PM 37.8000 -106.1200 252° West 409 471 36,000  Level FlightAware
08:52PM 37.7770 -106.2100 252° West 409 471 36,000  Level FlightAware
08:53PM 37.7560 -106.2930 252° West 410 472 36,000  Level FlightAware
08:54PM 37.7320 -106.3870 252° West 411 473 36,000  Level FlightAware
08:54PM 37.7050 -106.4910 252° West 409 471 36,000  Level FlightAware
08:55PM 37.6810 -106.5820 252° West 408 470 36,000  Level FlightAware
08:55PM 37.6660 -106.6420 252° West 409 471 36,000  Level FlightAware
08:56PM 37.6440 -106.7270 252° West 409 471 36,000  Level FlightAware
08:57PM 37.6180 -106.8260 252° West 410 472 36,000  Level FlightAware
08:57PM 37.6000 -106.8970 252° West 409 471 36,000  Level FlightAware
08:58PM 37.5740 -106.9940 251° West 410 472 36,000  Level FlightAware
08:59PM 37.5450 -107.1060 252° West 411 473 36,000  Level FlightAware
09:00PM 37.5220 -107.1930 252° West 409 471 36,000  Level FlightAware
09:00PM 37.4960 -107.2880 251° West 408 470 36,000  Level FlightAware
09:01PM 37.4740 -107.3700 251° West 409 471 36,000  Level FlightAware
09:02PM 37.4480 -107.4700 252° West 409 471 36,000  Level FlightAware
09:02PM 37.4240 -107.5580 251° West 409 471 36,000  Level FlightAware
09:03PM 37.4000 -107.6480 251° West 409 471 36,000  Level FlightAware
09:04PM 37.3720 -107.7520 251° West 409 471 36,000  Level FlightAware
09:04PM 37.3450 -107.8520 251° West 408 470 36,000  Level FlightAware
09:05PM 37.3240 -107.9290 251° West 408 470 36,000  Level FlightAware
09:06PM 37.2950 -108.0320 251° West 408 470 36,000  Level FlightAware
09:06PM 37.2730 -108.1140 251° West 407 468 36,000  Level FlightAware
09:07PM 37.2350 -108.2520 251° West 405 466 36,000  Level FlightAware
09:08PM 37.2110 -108.3380 251° West 405 466 36,000  Level FlightAware
09:09PM 37.1870 -108.4240 251° West 405 466 36,000  Level FlightAware
09:09PM 37.1590 -108.5270 251° West 406 467 36,000  Level FlightAware
09:10PM 37.1360 -108.6090 251° West 407 468 36,000  Level FlightAware
09:11PM 37.1090 -108.7030 250° West 408 470 36,000  Level FlightAware
09:12PM 37.0820 -108.7990 251° West 408 470 36,000  Level FlightAware
09:12PM 37.0500 -108.9110 250° West 408 470 36,000  Level FlightAware
09:13PM 37.0230 -109.0040 250° West 408 470 36,000  Level FlightAware
09:14PM 37.0030 -109.0730 250° West 408 470 36,000  Level FlightAware
09:15PM 37.0660 -108.8580 70° East 36,000  Level FlightAware
09:16PM 36.9311 -109.3292 70° East 407 468 36,000  Level Denver Center
09:17PM 36.8886 -109.4769 250° West 406 467 36,000  Level Denver Center
09:18PM 36.8522 -109.6031 250° West 406 467 36,000  Level Denver Center
09:24PM 36.6140 -110.4110 250° West 399 459 36,000  Level FlightAware
09:24PM 36.5880 -110.4990 250° West 399 459 36,000  Level FlightAware
09:25PM 36.5600 -110.5930 250° West 398 458 36,000  Level FlightAware
09:26PM 36.5390 -110.6620 249° West 399 459 36,000  Level FlightAware
09:27PM 36.5060 -110.7720 250° West 401 461 36,000  Level FlightAware
09:27PM 36.4780 -110.8640 249° West 401 461 36,000  Level FlightAware
09:28PM 36.4500 -110.9550 249° West 402 463 36,000  Level FlightAware
09:29PM 36.4280 -111.0280 249° West 404 465 36,000  Level FlightAware
09:29PM 36.3970 -111.1300 249° West 403 464 36,000  Level FlightAware
09:30PM 36.3700 -111.2150 248° West 403 464 36,000  Level FlightAware
09:31PM 36.3400 -111.3150 250° West 403 464 36,000  Level FlightAware
09:31PM 36.3110 -111.4030 248° West 402 463 36,000  Level FlightAware
09:32PM 36.2790 -111.4910 246° West 401 461 36,000  Level FlightAware
09:33PM 36.2470 -111.5800 246° West 400 460 36,000  Level FlightAware
09:34PM 36.2150 -111.6720 247° West 400 460 36,000  Level FlightAware
09:34PM 36.1880 -111.7470 246° West 400 460 36,000  Level FlightAware
09:35PM 36.1480 -111.8600 246° West 400 460 36,000  Level FlightAware
09:36PM 36.1110 -111.9620 246° West 402 463 36,000  Level FlightAware
09:37PM 36.0790 -112.0530 247° West 403 464 36,000  Level FlightAware
09:37PM 36.0500 -112.1330 246° West 404 465 36,000  Level FlightAware
09:38PM 36.0160 -112.2260 246° West 404 465 36,000  Level FlightAware
09:39PM 35.9820 -112.3190 246° West 403 464 36,000  Level FlightAware
09:39PM 35.9530 -112.4010 246° West 403 464 36,000  Level FlightAware
09:40PM 35.9220 -112.4870 246° West 405 466 36,000  Level FlightAware
09:41PM 35.8860 -112.5830 245° Southwest 407 468 36,000  Level FlightAware
09:41PM 35.8530 -112.6730 246° West 408 470 36,000  Level FlightAware
09:42PM 35.8250 -112.7490 246° West 409 471 36,000  Level FlightAware
09:43PM 35.7900 -112.8450 246° West 407 468 36,000  Level FlightAware
09:44PM 35.7550 -112.9390 245° Southwest 407 468 36,000  Level FlightAware
09:44PM 35.7250 -113.0190 245° Southwest 408 470 36,000  Level FlightAware
09:45PM 35.6900 -113.1150 246° West 409 471 36,000  Level FlightAware
09:46PM 35.6560 -113.2050 245° Southwest 409 471 36,000  Level FlightAware
09:46PM 35.6260 -113.2850 245° Southwest 408 470 36,000  Level FlightAware
09:47PM 35.5950 -113.3690 246° West 407 468 36,000  Level FlightAware
09:48PM 35.5580 -113.4680 245° Southwest 404 465 36,000  Level FlightAware
09:48PM 35.5280 -113.5470 245° Southwest 404 465 36,000  Level FlightAware
09:49PM 35.4920 -113.6430 245° Southwest 405 466 36,000  Level FlightAware
09:50PM 35.4600 -113.7270 245° Southwest 410 472 36,000  Level FlightAware
09:51PM 35.4260 -113.8170 245° Southwest 412 474 36,000  Level FlightAware
09:51PM 35.3910 -113.9070 245° Southwest 411 473 36,000  Level FlightAware
09:52PM 35.3590 -113.9920 245° Southwest 410 472 36,000  Level FlightAware
09:53PM 35.3250 -114.0800 245° Southwest 407 468 36,000  Level FlightAware
09:53PM 35.2900 -114.1710 245° Southwest 404 465 36,000  Level FlightAware
09:54PM 35.2570 -114.2580 245° Southwest 405 466 36,000  Level FlightAware
09:55PM 35.2240 -114.3420 244° Southwest 405 466 36,000  Level FlightAware
09:55PM 35.1920 -114.4240 244° Southwest 405 466 36,000  Level FlightAware
09:56PM 35.1550 -114.5200 245° Southwest 408 470 36,000  Level FlightAware
09:57PM 35.1230 -114.6030 245° Southwest 408 470 36,000  Level FlightAware
09:58PM 35.0890 -114.6900 244° Southwest 411 473 36,000  Level FlightAware
09:58PM 35.0550 -114.7780 245° Southwest 416 479 36,000  Level FlightAware
09:59PM 35.0190 -114.8680 244° Southwest 420 483 36,000  Level FlightAware
10:00PM 34.9830 -114.9610 245° Southwest 422 486 36,000  Level FlightAware
10:00PM 34.9500 -115.0440 244° Southwest 420 483 36,000  Level FlightAware
10:01PM 34.9120 -115.1390 244° Southwest 420 483 36,000  Level FlightAware
10:02PM 34.8760 -115.2300 244° Southwest 419 482 36,000  Level FlightAware
10:02PM 34.8420 -115.3150 244° Southwest 418 481 36,000 -120 Level FlightAware
10:03PM 34.8050 -115.4080 244° Southwest 417 480 35,900 -600 Descending FlightAware
10:04PM 34.7730 -115.4890 244° Southwest 423 487 35,200 -1,440 Descending FlightAware
10:05PM 34.7350 -115.5830 244° Southwest 426 490 34,000 -1,800 Descending FlightAware
10:05PM 34.7000 -115.6710 244° Southwest 423 487 32,700 -1,680 Descending FlightAware
10:06PM 34.6630 -115.7630 244° Southwest 427 491 31,700 -1,260 Descending FlightAware
10:07PM 34.6260 -115.8540 244° Southwest 420 483 31,000 -960 Descending FlightAware
10:07PM 34.5890 -115.9450 244° Southwest 417 480 30,400 -720 Descending FlightAware
10:08PM 34.5460 -116.0490 243° Southwest 419 482 29,900 -1,020 Descending FlightAware
10:09PM 34.5110 -116.1360 244° Southwest 427 491 28,900 -1,320 Descending FlightAware
10:10PM 34.4760 -116.2230 244° Southwest 421 484 28,200 -1,020 Descending FlightAware
10:10PM 34.4350 -116.3230 244° Southwest 423 487 27,400 -1,020 Descending FlightAware
10:11PM 34.4010 -116.4040 243° Southwest 420 483 26,800 -1,080 Descending FlightAware
10:12PM 34.3630 -116.4970 244° Southwest 415 478 26,000 -1,080 Descending FlightAware
10:12PM 34.3280 -116.5810 243° Southwest 406 467 25,300 -1,080 Descending FlightAware
10:13PM 34.2950 -116.6620 244° Southwest 401 461 24,600 -1,080 Descending FlightAware
10:14PM 34.2580 -116.7500 243° Southwest 400 460 23,800 -1,020 Descending FlightAware
10:15PM 34.2240 -116.8320 243° Southwest 400 460 23,200 -1,380 Descending FlightAware
10:15PM 34.1870 -116.9220 244° Southwest 392 451 21,900 -1,680 Descending FlightAware
10:16PM 34.1550 -116.9980 243° Southwest 374 430 20,900 -1,440 Descending FlightAware
10:17PM 34.1250 -117.0700 243° Southwest 355 409 20,000 -1,020 Descending FlightAware
10:17PM 34.0930 -117.1430 242° Southwest 319 367 19,500 -1,320 Descending FlightAware
10:18PM 34.0630 -117.2100 242° Southwest 315 362 18,100 -2,100 Descending FlightAware
10:19PM 34.0470 -117.2560 247° West 316 364 17,000 -2,340 Descending FlightAware
10:19PM 34.0400 -117.3290 263° West 309 356 15,400 -2,100 Descending FlightAware
10:20PM 34.0350 -117.3890 264° West 296 341 14,300 -1,620 Descending FlightAware
10:21PM 34.0290 -117.4670 265° West 282 325 13,200 -1,320 Descending FlightAware
10:21PM 34.0330 -117.5300 274° West 257 296 12,400 -960 Descending FlightAware
10:22PM 34.0330 -117.5870 270° West 231 266 11,900 -1,200 Descending FlightAware
10:23PM 34.0280 -117.6390 263° West 239 275 10,800 -1,500 Descending FlightAware
10:23PM 34.0220 -117.6950 263° West 230 265 9,800 -1,440 Descending FlightAware
10:24PM 34.0210 -117.7110 266° West 233 268 9,500 -1,020 Descending FlightAware
10:24PM 34.0170 -117.7490 263° West 225 259 9,100 -660 Descending FlightAware
10:25PM 34.0140 -117.7840 264° West 220 253 8,900 -780 Descending FlightAware
10:25PM 34.0100 -117.8190 262° West 228 262 8,400 -1,080 Descending FlightAware
10:26PM 34.0070 -117.8530 264° West 225 259 7,900 -1,080 Descending FlightAware
10:26PM 34.0040 -117.8810 263° West 224 258 7,500 -1,020 Descending FlightAware
10:26PM 34.0000 -117.9200 263° West 224 258 7,000 -900 Descending FlightAware
10:27PM 33.9970 -117.9550 264° West 223 257 6,600 -840 Descending FlightAware
10:27PM 33.9950 -117.9740 263° West 221 254 6,400 -720 Descending FlightAware
10:27PM 33.9920 -118.0000 262° West 220 253 6,200 -780 Descending FlightAware
10:28PM 33.9900 -118.0230 264° West 219 252 5,900 -900 Descending FlightAware
10:28PM 33.9870 -118.0580 264° West 220 253 5,500 -840 Descending FlightAware
10:29PM 33.9830 -118.0950 263° West 224 258 5,100 -780 Descending FlightAware
10:29PM 33.9820 -118.1080 265° West 224 258 5,000 -900 Descending FlightAware
10:29PM 33.9780 -118.1450 263° West 220 253 4,500 -1,200 Descending FlightAware
10:30PM 33.9750 -118.1780 264° West 215 247 3,900 -1,200 Descending FlightAware
10:30PM 33.9710 -118.2110 262° West 211 243 3,400 -1,080 Descending FlightAware
10:31PM 33.9680 -118.2430 264° West 207 238 2,900 -1,140 Descending FlightAware
10:31PM 33.9650 -118.2750 264° West 189 217 2,300 -1,080 Descending FlightAware
10:32PM 33.9630 -118.3010 265° West 175 201 1,900 -1,020 Descending FlightAware
10:32PM 33.9610 -118.3110 256° West 167 192 1,700 -960 Descending FlightAware
10:32PM 33.9590 -118.3370 265° West 151 174 1,300 -840 Descending FlightAware
10:33PM 33.9560 -118.3610 261° West 142 163 900 -780 Descending FlightAware
10:33PM 33.9560 -118.3680 270° West 141 162 800 -540 Descending FlightAware
10:34PM 33.9540 -118.3840 261° West 144 166 600 -600 Descending FlightAware
10:34PM 33.9520 -118.4010 262° West 142 163 300 -360 Descending FlightAware
10:34PM 33.9500 -118.4200 263° West 142 163 300  Level FlightAware